Lewistown, MT (59457)

6:47 AM MST on December 04, 2016 (GMT -0700)
3rd Ave S Lewistown | | Change Station
Active Advisory: Winter Weather Advisory

Elev 3927 ft 47.06 °N, 109.42 °W | Updated 2 seconds ago

Clear
Clear
30.5 °F
Feels Like 30 °F
N
1.0
Wind Variable Wind from SSW
Gusts 5.0 mph

Today
High -- | Low -- °F
--% Chance of Precip.
Yesterday
High -- | Low -- °F
Precip. -- in
Pressure 29.84 in
Visibility 10.0 miles
Clouds Clear
Windchill 30 °F
Dew Point 20 °F
Humidity 65%
Rainfall 0.00 in
Snow Depth Not available.
7:47 AM 4:29 PM
Waxing Crescent, 22% visible
METAR KLWT 041254Z AUTO 23012KT 10SM CLR M02/M08 A2975 RMK AO2 SLP104 T10221078
Pressure 29.84 in
Visibility 10.0 miles
Clouds Clear
Windchill 30 °F
Dew Point 20 °F
Humidity 65%
Rainfall 0.00 in
Snow Depth Not available.
7:47 AM 4:29 PM
Waxing Crescent, 22% visible
METAR KLWT 041254Z AUTO 23012KT 10SM CLR M02/M08 A2975 RMK AO2 SLP104 T10221078

10-Day Weather Forecast

Almanac

Astronomy

Dec. 04, 2016 Rise Set
Actual Time
Civil Twilight
Nautical Twilight
Astronomical Twilight
Moon
Length of Visible Light
Length of Day
Tomorrow will be .
, % of the Moon is Illuminated

Today's Extremes

State Highs State Lows

Community

WunderPhotos

Upload Photos

1,955,596 photos uploaded!

WunderBlog® & News

Nearby

Air Quality

  Air Quality AQ Index Pollutant
Not available.

Snow Depth

Station Depth Elevation

Earthquake Activity

City Distance Mag. Time & Date
Minimum magnitude displayed is 2.5.

Coastal Water Temperatures

Place Temperature

Stations

Nearby Weather Stations

Station Location Temp. Windchill Dew Point Humidity Wind Precip. Elev Updated Type
                   

Watches & Warnings

Winter Weather Advisory
Issued: 3:29 AM MST Dec. 4, 2016 – National Weather Service

... Winter Weather Advisory remains in effect from 2 PM this
afternoon to 5 PM MST Monday...

* locations... Lewistown... Lewistown Divide... Big Sandy... Fort
Benton.

* Snow accumulations... 1 to 3 inches.

* Timing... snow will develop this afternoon and continue through
Monday afternoon before tapering off. A period of moderate to
heavy snow is likely... especially tonight into Monday morning.

* Impacts... periods of moderate to heavy snow will create
hazardous driving conditions at times. In addition... blowing
and drifting snow is possible... especially on Sunday... which
will lead to poor visibility at times. Significant travel
impacts will remain possible through the Monday morning
commute. The snow will be followed by sub zero temperatures
Monday night.

* Winds... northwest 10 to 20 mph with gusts up to 25 mph.

Precautionary/preparedness actions...

A Winter Weather Advisory for snow means that periods of snow
will cause primarily travel difficulties. Be prepared for snow
covered roads and limited visibilities... and use caution while
driving.

For specific Road and travel conditions in Montana... dial 5 1 1.